createdAt,value
2023-04-15T00:01:19.268Z,7.69
2023-04-15T00:03:47.448Z,7.69
2023-04-15T00:06:14.556Z,7.69
2023-04-15T00:08:41.857Z,7.69
2023-04-15T00:11:08.436Z,7.69
2023-04-15T00:13:35.079Z,7.63
2023-04-15T00:16:02.201Z,7.75
2023-04-15T00:18:32.125Z,7.63
2023-04-15T00:20:59.377Z,7.63
2023-04-15T00:23:26.699Z,7.63
2023-04-15T00:25:53.279Z,7.56
2023-04-15T00:28:19.995Z,7.69
2023-04-15T00:30:47.238Z,7.56
2023-04-15T00:33:14.539Z,7.44
2023-04-15T00:35:41.477Z,7.31
2023-04-15T00:38:08.313Z,7.38
2023-04-15T00:40:35.525Z,7.06
2023-04-15T00:43:02.579Z,6.63
2023-04-15T00:45:29.473Z,6.63
2023-04-15T00:47:56.713Z,6.44
2023-04-15T00:50:23.430Z,6.19
2023-04-15T00:52:50.032Z,6.38
2023-04-15T00:55:16.797Z,6.19
2023-04-15T00:57:44.596Z,6.19
2023-04-15T01:00:12.145Z,6.00
2023-04-15T01:02:39.496Z,5.69
2023-04-15T01:05:07.614Z,5.50
2023-04-15T01:07:34.318Z,5.38
2023-04-15T01:10:01.134Z,5.38
2023-04-15T01:12:28.196Z,5.38
2023-04-15T01:14:56.208Z,5.38
2023-04-15T01:17:24.515Z,5.25
2023-04-15T01:19:52.336Z,5.13
2023-04-15T01:22:19.737Z,5.00
2023-04-15T01:25:06.219Z,5.06
2023-04-15T01:27:35.387Z,5.13
2023-04-15T01:30:05.261Z,5.25
2023-04-15T01:32:31.959Z,5.31
2023-04-15T01:34:58.613Z,5.44
2023-04-15T01:37:26.085Z,5.25
2023-04-15T01:39:52.694Z,5.25
2023-04-15T01:42:19.334Z,5.88
2023-04-15T01:44:46.300Z,5.69
2023-04-15T01:47:14.198Z,5.50
2023-04-15T01:49:41.020Z,5.50
2023-04-15T01:52:08.290Z,5.63
2023-04-15T01:54:35.643Z,5.56
2023-04-15T01:57:02.408Z,5.56
2023-04-15T01:59:29.089Z,5.50
2023-04-15T02:01:56.177Z,5.25
2023-04-15T02:04:22.883Z,5.31
2023-04-15T02:06:49.456Z,5.13
2023-04-15T02:09:16.097Z,5.25
2023-04-15T02:11:42.900Z,5.63
2023-04-15T02:14:09.526Z,5.63
2023-04-15T02:16:36.614Z,5.56
2023-04-15T02:19:03.845Z,5.56
2023-04-15T02:21:30.693Z,5.44
2023-04-15T02:23:57.566Z,5.44
2023-04-15T02:26:25.317Z,5.38
2023-04-15T02:28:51.900Z,5.25
2023-04-15T02:31:18.602Z,5.06
2023-04-15T02:33:45.540Z,4.94
2023-04-15T02:36:12.508Z,4.88
2023-04-15T02:38:41.293Z,4.94
2023-04-15T02:41:08.585Z,4.56
2023-04-15T02:43:35.530Z,4.69
2023-04-15T02:46:02.403Z,4.88
2023-04-15T02:48:29.180Z,4.81
2023-04-15T02:51:11.766Z,4.69
2023-04-15T02:53:38.342Z,4.56
2023-04-15T02:56:06.161Z,4.31
2023-04-15T02:58:32.768Z,3.94
2023-04-15T03:00:59.378Z,4.00
2023-04-15T03:03:28.151Z,4.06
2023-04-15T03:05:54.837Z,3.81
2023-04-15T03:08:21.404Z,4.06
2023-04-15T03:10:49.303Z,4.00
2023-04-15T03:13:15.929Z,4.38
2023-04-15T03:15:42.523Z,4.19
2023-04-15T03:18:09.163Z,4.25
2023-04-15T03:20:36.513Z,4.31
2023-04-15T03:23:03.238Z,4.19
2023-04-15T03:25:29.824Z,4.13
2023-04-15T03:27:56.814Z,4.31
2023-04-15T03:30:23.436Z,4.63
2023-04-15T03:32:50.019Z,4.38
2023-04-15T03:35:17.119Z,4.38
2023-04-15T03:37:43.781Z,4.63
2023-04-15T03:40:10.851Z,4.50
2023-04-15T03:42:37.442Z,4.25
2023-04-15T03:45:04.368Z,3.94
2023-04-15T03:47:31.071Z,3.69
2023-04-15T03:49:57.690Z,3.81
2023-04-15T03:52:24.339Z,3.56
2023-04-15T03:54:51.462Z,3.38
2023-04-15T03:57:18.049Z,3.44
2023-04-15T03:59:44.631Z,3.56
2023-04-15T04:02:11.686Z,3.63
2023-04-15T04:04:38.441Z,3.56
2023-04-15T04:07:05.158Z,3.38
2023-04-15T04:09:31.761Z,3.69
2023-04-15T04:11:58.578Z,3.69
2023-04-15T04:14:29.489Z,3.50
2023-04-15T04:16:57.407Z,3.38
2023-04-15T04:19:24.021Z,3.38
2023-04-15T04:21:51.091Z,3.44
2023-04-15T04:24:17.762Z,3.19
2023-04-15T04:26:44.429Z,3.38
2023-04-15T04:29:11.079Z,3.44
2023-04-15T04:31:37.733Z,3.19
2023-04-15T04:34:04.307Z,3.25
2023-04-15T04:36:30.879Z,3.06
2023-04-15T04:38:57.626Z,3.06
2023-04-15T04:41:24.261Z,3.19
2023-04-15T04:43:50.912Z,3.06
2023-04-15T04:46:17.564Z,3.00
2023-04-15T04:48:46.624Z,2.94
2023-04-15T04:51:13.842Z,2.94
2023-04-15T04:53:40.723Z,3.00
2023-04-15T04:56:07.438Z,3.00
2023-04-15T04:58:34.100Z,2.94
2023-04-15T05:01:00.908Z,3.00
2023-04-15T05:03:27.702Z,2.94
2023-04-15T05:05:54.748Z,3.06
2023-04-15T05:08:21.467Z,3.13
2023-04-15T05:10:48.338Z,3.06
2023-04-15T05:13:14.902Z,3.19
2023-04-15T05:15:43.278Z,3.38
2023-04-15T05:18:09.885Z,3.31
2023-04-15T05:20:36.693Z,3.31
2023-04-15T05:23:03.282Z,3.44
2023-04-15T05:25:29.926Z,3.56
2023-04-15T05:27:56.556Z,3.81
2023-04-15T05:30:23.156Z,4.00
2023-04-15T05:32:50.192Z,4.31
2023-04-15T05:35:17.531Z,4.69
2023-04-15T05:37:44.128Z,4.75
2023-04-15T05:40:11.067Z,4.94
2023-04-15T05:42:37.700Z,5.06
2023-04-15T05:45:09.004Z,5.13
2023-04-15T05:47:37.455Z,5.13
2023-04-15T05:50:04.861Z,5.06
2023-04-15T05:52:31.782Z,5.13
2023-04-15T05:54:58.889Z,5.25
2023-04-15T05:57:25.678Z,5.19
2023-04-15T05:59:52.833Z,5.19
2023-04-15T06:02:19.719Z,5.13
2023-04-15T06:04:46.475Z,5.19
2023-04-15T06:07:13.043Z,5.25
2023-04-15T06:09:39.703Z,5.31
2023-04-15T06:12:06.902Z,5.25
2023-04-15T06:14:33.481Z,5.50
2023-04-15T06:17:00.145Z,5.63
2023-04-15T06:19:26.702Z,5.63
2023-04-15T06:21:53.986Z,5.88
2023-04-15T06:24:20.824Z,5.88
2023-04-15T06:26:47.469Z,6.06
2023-04-15T06:29:14.316Z,6.06
2023-04-15T06:31:41.862Z,6.19
2023-04-15T06:34:08.539Z,6.19
2023-04-15T06:36:35.155Z,6.38
2023-04-15T06:39:02.838Z,6.38
2023-04-15T06:41:29.777Z,6.56
2023-04-15T06:44:02.869Z,6.81
2023-04-15T06:46:29.498Z,6.94
2023-04-15T06:48:56.171Z,7.13
2023-04-15T06:51:26.117Z,7.19
2023-04-15T06:53:53.329Z,7.00
2023-04-15T06:56:19.998Z,6.94
2023-04-15T06:58:47.168Z,7.00
2023-04-15T07:01:14.373Z,7.13
2023-04-15T07:03:41.949Z,7.31
2023-04-15T07:06:09.528Z,7.50
2023-04-15T07:08:36.770Z,7.63
2023-04-15T07:11:03.371Z,7.81
2023-04-15T07:13:32.455Z,7.88
2023-04-15T07:15:59.871Z,8.06
2023-04-15T07:18:26.506Z,8.06
2023-04-15T07:20:53.097Z,8.00
2023-04-15T07:23:19.734Z,7.94
2023-04-15T07:25:46.299Z,7.94
2023-04-15T07:28:13.078Z,8.00
2023-04-15T07:30:39.757Z,8.06
2023-04-15T07:33:06.966Z,8.13
2023-04-15T07:35:33.597Z,8.38
2023-04-15T07:38:00.189Z,8.44
2023-04-15T07:40:28.200Z,8.56
2023-04-15T07:42:57.235Z,8.75
2023-04-15T07:45:24.147Z,8.81
2023-04-15T07:47:53.589Z,8.94
2023-04-15T07:50:20.206Z,9.13
2023-04-15T07:52:47.053Z,9.25
2023-04-15T07:55:13.739Z,9.50
2023-04-15T07:57:40.333Z,9.50
2023-04-15T08:00:07.956Z,9.63
2023-04-15T08:02:36.908Z,9.56
2023-04-15T08:05:05.268Z,9.50
2023-04-15T08:07:32.580Z,9.69
2023-04-15T08:09:59.175Z,9.69
2023-04-15T08:12:25.921Z,9.56
2023-04-15T08:14:52.572Z,9.56
2023-04-15T08:17:19.189Z,9.75
2023-04-15T08:19:46.054Z,9.75
2023-04-15T08:22:17.720Z,9.88
2023-04-15T08:24:45.802Z,9.94
2023-04-15T08:27:12.732Z,9.88
2023-04-15T08:29:40.663Z,10.00
2023-04-15T08:32:07.859Z,10.06
2023-04-15T08:34:35.027Z,10.19
2023-04-15T08:37:01.681Z,10.00
2023-04-15T08:39:28.365Z,9.94
2023-04-15T08:42:02.550Z,10.06
2023-04-15T08:44:32.081Z,10.06
2023-04-15T08:47:02.946Z,9.94
2023-04-15T08:49:30.488Z,10.06
2023-04-15T08:52:00.380Z,10.13
2023-04-15T08:54:28.567Z,10.13
2023-04-15T08:56:58.541Z,9.88
2023-04-15T08:59:25.771Z,10.00
2023-04-15T09:01:53.208Z,10.13
2023-04-15T09:04:19.935Z,10.19
2023-04-15T09:06:47.178Z,10.31
2023-04-15T09:09:14.610Z,10.38
2023-04-15T09:11:42.442Z,10.38
2023-04-15T09:14:09.073Z,10.50
2023-04-15T09:16:56.967Z,10.44
2023-04-15T09:19:25.063Z,10.63
2023-04-15T09:21:57.322Z,10.69
2023-04-15T09:24:27.131Z,10.69
2023-04-15T09:26:56.036Z,10.75
2023-04-15T09:29:26.769Z,10.63
2023-04-15T09:31:53.402Z,10.50
2023-04-15T09:34:21.220Z,10.50
2023-04-15T09:36:49.230Z,10.56
2023-04-15T09:39:17.186Z,10.50
2023-04-15T09:41:44.619Z,10.50
2023-04-15T09:44:27.287Z,10.69
2023-04-15T09:46:53.979Z,10.81
2023-04-15T09:49:21.032Z,10.94
2023-04-15T09:52:01.478Z,10.81
2023-04-15T09:54:36.440Z,10.88
2023-04-15T09:57:08.512Z,10.81
2023-04-15T09:59:35.602Z,10.94
2023-04-15T10:02:05.757Z,11.06
2023-04-15T10:04:36.684Z,11.00
2023-04-15T10:07:05.262Z,11.13
2023-04-15T10:09:33.652Z,11.44
2023-04-15T10:12:01.196Z,11.19
2023-04-15T10:14:32.314Z,11.25
2023-04-15T10:17:02.145Z,11.31
2023-04-15T10:19:33.185Z,11.44
2023-04-15T10:22:00.434Z,11.56
2023-04-15T10:24:28.485Z,11.56
2023-04-15T10:26:55.585Z,11.63
2023-04-15T10:29:26.750Z,11.69
2023-04-15T10:31:56.389Z,11.63
2023-04-15T10:34:27.467Z,11.81
2023-04-15T10:37:01.561Z,12.06
2023-04-15T10:39:34.171Z,12.06
2023-04-15T10:42:15.884Z,12.31
2023-04-15T10:44:49.716Z,12.19
2023-04-15T10:47:19.551Z,11.75
2023-04-15T10:49:52.440Z,11.50
2023-04-15T10:52:24.522Z,11.56
2023-04-15T10:55:03.584Z,11.88
2023-04-15T10:57:37.589Z,12.00
2023-04-15T11:00:12.911Z,12.00
2023-04-15T11:02:40.238Z,12.00
2023-04-15T11:05:07.649Z,11.94
2023-04-15T11:07:35.852Z,11.94
2023-04-15T11:10:03.220Z,12.00
2023-04-15T11:12:36.773Z,12.19
2023-04-15T11:15:32.834Z,12.25
2023-04-15T11:18:15.019Z,12.38
2023-04-15T11:20:47.391Z,12.13
2023-04-15T11:23:34.421Z,12.31
2023-04-15T11:26:05.487Z,12.50
2023-04-15T11:28:33.126Z,12.56
2023-04-15T11:31:11.325Z,12.44
2023-04-15T11:33:55.148Z,12.31
2023-04-15T11:36:27.102Z,12.38
2023-04-15T11:38:53.950Z,11.88
2023-04-15T11:41:22.367Z,12.06
2023-04-15T11:43:50.425Z,12.25
2023-04-15T11:46:17.813Z,12.25
2023-04-15T11:48:46.768Z,12.44
2023-04-15T11:51:14.477Z,12.38
2023-04-15T11:53:49.736Z,12.13
2023-04-15T11:56:21.039Z,12.13
2023-04-15T11:58:50.696Z,12.06
2023-04-15T12:01:17.689Z,12.44
2023-04-15T12:03:49.315Z,12.25
2023-04-15T12:06:24.447Z,12.50
2023-04-15T12:09:04.725Z,12.44
2023-04-15T12:11:34.503Z,12.31
2023-04-15T12:14:28.221Z,12.38
2023-04-15T12:17:04.811Z,12.69
2023-04-15T12:19:36.269Z,12.25
2023-04-15T12:22:15.253Z,12.06
2023-04-15T12:24:46.803Z,12.25
2023-04-15T12:27:15.144Z,12.19
2023-04-15T12:29:45.876Z,12.38
2023-04-15T12:32:16.917Z,12.56
2023-04-15T12:34:49.611Z,12.25
2023-04-15T12:37:16.928Z,12.06
2023-04-15T12:39:45.900Z,12.19
2023-04-15T12:42:14.570Z,12.38
2023-04-15T12:44:41.633Z,12.25
2023-04-15T12:47:09.900Z,11.88
2023-04-15T12:49:37.686Z,12.00
2023-04-15T12:52:04.682Z,12.00
2023-04-15T12:54:32.125Z,12.31
2023-04-15T12:56:59.917Z,12.13
2023-04-15T12:59:26.989Z,12.31
2023-04-15T13:01:54.589Z,12.31
2023-04-15T13:04:22.160Z,12.13
2023-04-15T13:06:49.465Z,12.19
2023-04-15T13:09:16.235Z,12.38
2023-04-15T13:11:43.079Z,12.19
2023-04-15T13:14:13.048Z,11.88
2023-04-15T13:16:40.068Z,11.81
2023-04-15T13:19:07.322Z,12.06
2023-04-15T13:21:35.783Z,11.75
2023-04-15T13:24:03.982Z,11.88
2023-04-15T13:26:31.667Z,11.56
2023-04-15T13:28:58.454Z,11.56
2023-04-15T13:31:25.121Z,11.56
2023-04-15T13:33:51.779Z,11.56
2023-04-15T13:36:18.461Z,11.63
2023-04-15T13:38:45.248Z,11.81
2023-04-15T13:41:11.911Z,11.88
2023-04-15T13:43:38.464Z,11.56
2023-04-15T13:46:05.444Z,11.94
2023-04-15T13:48:32.136Z,11.88
2023-04-15T13:50:58.694Z,11.69
2023-04-15T13:53:27.437Z,11.25
2023-04-15T13:56:09.280Z,11.25
2023-04-15T13:58:37.078Z,11.38
2023-04-15T14:01:06.274Z,11.25
2023-04-15T14:03:48.979Z,11.31
2023-04-15T14:06:15.765Z,11.25
2023-04-15T14:08:42.651Z,11.44
2023-04-15T14:11:09.721Z,11.31
2023-04-15T14:13:36.737Z,11.13
2023-04-15T14:16:03.773Z,10.88
2023-04-15T14:18:30.803Z,10.94
2023-04-15T14:20:57.427Z,10.94
2023-04-15T14:23:24.066Z,10.94
2023-04-15T14:25:52.043Z,10.88
2023-04-15T14:28:18.691Z,10.50
2023-04-15T14:30:45.349Z,10.50
2023-04-15T14:33:15.303Z,10.44
2023-04-15T14:35:41.961Z,10.44
2023-04-15T14:38:11.171Z,10.50
2023-04-15T14:40:38.939Z,10.50
2023-04-15T14:43:05.513Z,10.50
2023-04-15T14:45:32.208Z,10.56
2023-04-15T14:47:59.968Z,10.63
2023-04-15T14:50:26.650Z,10.63
2023-04-15T14:52:53.237Z,10.63
2023-04-15T14:55:20.478Z,10.50
2023-04-15T14:57:55.359Z,10.56
2023-04-15T15:00:22.005Z,10.44
2023-04-15T15:02:48.664Z,10.25
2023-04-15T15:05:16.126Z,10.06
2023-04-15T15:07:42.958Z,10.13
2023-04-15T15:10:10.370Z,10.38
2023-04-15T15:12:36.997Z,10.38
2023-04-15T15:15:12.141Z,10.81
2023-04-15T15:17:39.556Z,10.75
2023-04-15T15:20:06.777Z,10.50
2023-04-15T15:22:33.408Z,10.38
2023-04-15T15:25:02.071Z,10.13
2023-04-15T15:27:28.851Z,10.06
2023-04-15T15:29:56.590Z,10.00
2023-04-15T15:32:23.280Z,10.00
2023-04-15T15:34:49.957Z,9.94
2023-04-15T15:37:19.773Z,9.69
2023-04-15T15:39:46.508Z,9.81
2023-04-15T15:42:13.209Z,9.81
2023-04-15T15:44:41.435Z,9.69
2023-04-15T15:47:11.246Z,9.63
2023-04-15T15:49:37.923Z,9.56
2023-04-15T15:52:05.338Z,9.63
2023-04-15T15:54:32.168Z,9.50
2023-04-15T15:57:00.309Z,9.50
2023-04-15T15:59:27.091Z,9.50
2023-04-15T16:01:56.334Z,9.44
2023-04-15T16:04:23.408Z,9.44
2023-04-15T16:06:50.321Z,9.56
2023-04-15T16:09:17.701Z,9.38
2023-04-15T16:11:45.549Z,9.38
2023-04-15T16:14:13.964Z,9.31
2023-04-15T16:16:40.836Z,9.25
2023-04-15T16:19:07.463Z,9.13
2023-04-15T16:21:34.912Z,9.06
2023-04-15T16:24:02.105Z,8.88
2023-04-15T16:26:28.870Z,8.94
2023-04-15T16:28:55.729Z,8.88
2023-04-15T16:31:22.502Z,8.88
2023-04-15T16:33:49.119Z,9.00
2023-04-15T16:36:15.702Z,9.13
2023-04-15T16:38:42.388Z,9.06
2023-04-15T16:41:09.036Z,9.00
2023-04-15T16:43:35.677Z,9.06
2023-04-15T16:46:02.387Z,8.94
2023-04-15T16:48:29.064Z,8.94
2023-04-15T16:50:56.848Z,8.94
2023-04-15T16:53:23.502Z,8.81
2023-04-15T16:55:50.161Z,8.81
2023-04-15T16:58:16.805Z,8.81
2023-04-15T17:00:43.431Z,8.75
2023-04-15T17:03:10.541Z,8.75
2023-04-15T17:05:37.947Z,8.81
2023-04-15T17:08:05.723Z,8.88
2023-04-15T17:10:32.518Z,8.94
2023-04-15T17:12:59.260Z,8.94
2023-04-15T17:15:27.164Z,8.81
2023-04-15T17:17:54.266Z,8.81
2023-04-15T17:20:20.981Z,8.81
2023-04-15T17:22:48.869Z,8.81
2023-04-15T17:25:15.934Z,8.81
2023-04-15T17:27:42.550Z,8.88
2023-04-15T17:30:09.903Z,8.81
2023-04-15T17:32:37.146Z,8.81
2023-04-15T17:35:06.368Z,8.88
2023-04-15T17:37:34.017Z,8.75
2023-04-15T17:40:00.867Z,8.75
2023-04-15T17:42:27.573Z,8.75
2023-04-15T17:44:54.144Z,8.75
2023-04-15T17:47:20.771Z,8.69
2023-04-15T17:49:47.710Z,8.63
2023-04-15T17:52:14.372Z,8.56
2023-04-15T17:54:41.066Z,8.56
2023-04-15T17:57:07.743Z,8.56
2023-04-15T17:59:34.429Z,8.56
2023-04-15T18:02:01.064Z,8.56
2023-04-15T18:04:28.214Z,8.63
2023-04-15T18:06:55.005Z,8.63
2023-04-15T18:09:21.708Z,8.56
2023-04-15T18:11:48.983Z,8.63
2023-04-15T18:14:23.537Z,8.63
2023-04-15T18:16:57.651Z,8.63
2023-04-15T18:19:25.748Z,8.50
2023-04-15T18:21:52.433Z,8.50
2023-04-15T18:24:19.261Z,8.44
2023-04-15T18:26:48.769Z,8.44
2023-04-15T18:29:15.784Z,8.44
2023-04-15T18:31:43.132Z,8.44
2023-04-15T18:34:09.830Z,8.44
2023-04-15T18:36:36.532Z,8.50
2023-04-15T18:39:04.331Z,8.44
2023-04-15T18:41:31.193Z,8.50
2023-04-15T18:43:57.906Z,8.38
2023-04-15T18:46:24.618Z,8.31
2023-04-15T18:48:51.235Z,8.31
2023-04-15T18:51:17.778Z,8.31
2023-04-15T18:53:44.650Z,8.13
2023-04-15T18:56:11.469Z,8.06
2023-04-15T18:59:08.936Z,8.06
2023-04-15T19:01:24.698Z,8.06
2023-04-15T19:03:51.316Z,8.00
2023-04-15T19:06:17.909Z,7.94
2023-04-15T19:08:44.593Z,8.00
2023-04-15T19:11:11.370Z,8.00
2023-04-15T19:13:37.976Z,8.00
2023-04-15T19:16:04.883Z,7.94
2023-04-15T19:18:31.543Z,7.94
2023-04-15T19:20:58.243Z,7.94
2023-04-15T19:23:25.003Z,7.94
2023-04-15T19:25:51.618Z,7.94
2023-04-15T19:28:18.285Z,7.88
2023-04-15T19:30:44.891Z,7.88
2023-04-15T19:33:12.104Z,7.81
2023-04-15T19:35:40.960Z,7.81
2023-04-15T19:38:07.589Z,7.69
2023-04-15T19:40:34.206Z,7.69
2023-04-15T19:43:01.048Z,7.75
2023-04-15T19:45:27.703Z,7.69
2023-04-15T19:47:54.643Z,7.75
2023-04-15T19:50:25.832Z,7.69
2023-04-15T19:52:52.816Z,7.75
2023-04-15T19:55:19.746Z,7.75
2023-04-15T19:57:46.489Z,7.75
2023-04-15T20:00:13.377Z,7.81
2023-04-15T20:02:40.130Z,7.75
2023-04-15T20:05:09.813Z,7.81
2023-04-15T20:07:36.790Z,7.81
2023-04-15T20:10:03.627Z,7.81
2023-04-15T20:12:49.500Z,7.81
2023-04-15T20:15:19.415Z,7.81
2023-04-15T20:17:46.111Z,7.81
2023-04-15T20:20:12.780Z,7.88
2023-04-15T20:22:39.414Z,7.94
2023-04-15T20:25:06.438Z,7.94
2023-04-15T20:27:33.066Z,8.00
2023-04-15T20:29:59.748Z,7.94
2023-04-15T20:32:28.316Z,7.94
2023-04-15T20:34:55.143Z,8.06
2023-04-15T20:37:22.436Z,8.00
2023-04-15T20:39:49.173Z,8.06
2023-04-15T20:42:15.935Z,8.06
2023-04-15T20:44:42.588Z,8.06
2023-04-15T20:47:09.249Z,8.00
2023-04-15T20:49:37.619Z,8.00
2023-04-15T20:52:06.818Z,7.94
2023-04-15T20:54:33.694Z,7.94
2023-04-15T20:57:01.349Z,8.00
2023-04-15T20:59:28.558Z,8.00
2023-04-15T21:01:56.885Z,8.00
2023-04-15T21:04:24.474Z,7.94
2023-04-15T21:06:52.159Z,8.00
2023-04-15T21:09:18.994Z,7.94
2023-04-15T21:12:00.553Z,8.00
2023-04-15T21:14:28.153Z,7.94
2023-04-15T21:16:54.977Z,7.88
2023-04-15T21:19:21.575Z,7.94
2023-04-15T21:21:48.163Z,7.88
2023-04-15T21:24:14.780Z,7.88
2023-04-15T21:26:41.462Z,7.88
2023-04-15T21:29:10.403Z,7.88
2023-04-15T21:31:38.158Z,7.88
2023-04-15T21:34:05.421Z,7.88
2023-04-15T21:36:32.204Z,7.81
2023-04-15T21:38:58.814Z,7.81
2023-04-15T21:41:26.064Z,7.75
2023-04-15T21:43:53.434Z,7.75
2023-04-15T21:46:23.146Z,7.75
2023-04-15T21:48:50.748Z,7.75
2023-04-15T21:51:17.503Z,7.75
2023-04-15T21:53:44.131Z,7.75
2023-04-15T21:56:10.960Z,7.75
2023-04-15T21:58:37.668Z,7.69
2023-04-15T22:01:04.779Z,7.75
2023-04-15T22:03:33.982Z,7.75
2023-04-15T22:06:02.249Z,7.81
2023-04-15T22:08:29.221Z,7.81
2023-04-15T22:10:56.193Z,7.81
2023-04-15T22:13:22.782Z,7.81
2023-04-15T22:15:49.407Z,7.81
2023-04-15T22:18:16.129Z,7.88
2023-04-15T22:20:42.767Z,7.81
2023-04-15T22:23:09.872Z,7.88
2023-04-15T22:25:37.708Z,7.88
2023-04-15T22:28:07.860Z,7.88
2023-04-15T22:30:41.897Z,7.94
2023-04-15T22:33:09.818Z,7.88
2023-04-15T22:35:37.445Z,7.81
2023-04-15T22:38:05.160Z,7.81
2023-04-15T22:40:31.852Z,7.81
2023-04-15T22:42:59.157Z,7.88
2023-04-15T22:45:25.774Z,7.81
2023-04-15T22:47:52.455Z,7.88
2023-04-15T22:50:19.391Z,7.94
2023-04-15T22:52:47.418Z,7.94
2023-04-15T22:55:14.568Z,8.00
2023-04-15T22:57:41.299Z,8.00
2023-04-15T23:00:08.934Z,8.00
2023-04-15T23:02:35.620Z,8.00
2023-04-15T23:05:02.973Z,8.00
2023-04-15T23:07:32.794Z,8.00
2023-04-15T23:10:01.154Z,8.00
2023-04-15T23:12:27.996Z,8.00
2023-04-15T23:14:54.547Z,8.06
2023-04-15T23:17:21.274Z,8.00
2023-04-15T23:19:47.931Z,7.94
2023-04-15T23:22:14.617Z,7.94
2023-04-15T23:24:41.191Z,8.00
2023-04-15T23:27:07.769Z,7.94
2023-04-15T23:29:34.303Z,7.94
2023-04-15T23:32:00.991Z,7.88
2023-04-15T23:34:27.628Z,7.88
2023-04-15T23:36:54.228Z,7.88
2023-04-15T23:39:21.110Z,7.88
2023-04-15T23:41:47.942Z,7.88
2023-04-15T23:44:14.605Z,7.88
2023-04-15T23:46:41.251Z,7.88
2023-04-15T23:49:08.057Z,7.88
2023-04-15T23:51:34.729Z,7.88
2023-04-15T23:54:01.302Z,7.81
2023-04-15T23:56:27.898Z,7.88
2023-04-15T23:58:54.603Z,7.88
